sensor_id;sensor_type;location;lat;lon;timestamp;P1;durP1;ratioP1;P2;durP2;ratioP2
9496;SDS011;4786;51.270;4.456;2024-01-06T00:01:41;5.37;;;2.27;;
9496;SDS011;4786;51.270;4.456;2024-01-06T00:04:06;5.43;;;2.33;;
9496;SDS011;4786;51.270;4.456;2024-01-06T00:06:32;5.07;;;2.20;;
9496;SDS011;4786;51.270;4.456;2024-01-06T00:08:58;5.37;;;2.63;;
9496;SDS011;4786;51.270;4.456;2024-01-06T00:11:23;7.30;;;3.00;;
9496;SDS011;4786;51.270;4.456;2024-01-06T00:13:49;5.80;;;2.63;;
9496;SDS011;4786;51.270;4.456;2024-01-06T00:16:19;6.33;;;3.20;;
9496;SDS011;4786;51.270;4.456;2024-01-06T00:18:45;4.43;;;2.50;;
9496;SDS011;4786;51.270;4.456;2024-01-06T00:21:12;3.73;;;2.47;;
9496;SDS011;4786;51.270;4.456;2024-01-06T00:23:41;9.57;;;3.10;;
9496;SDS011;4786;51.270;4.456;2024-01-06T00:26:09;3.50;;;2.40;;
9496;SDS011;4786;51.270;4.456;2024-01-06T00:28:35;7.37;;;3.03;;
9496;SDS011;4786;51.270;4.456;2024-01-06T00:31:01;6.30;;;2.70;;
9496;SDS011;4786;51.270;4.456;2024-01-06T00:33:27;6.77;;;2.80;;
9496;SDS011;4786;51.270;4.456;2024-01-06T00:35:52;5.30;;;2.57;;
9496;SDS011;4786;51.270;4.456;2024-01-06T00:38:20;8.67;;;2.50;;
9496;SDS011;4786;51.270;4.456;2024-01-06T00:40:46;5.47;;;2.80;;
9496;SDS011;4786;51.270;4.456;2024-01-06T00:43:11;5.80;;;2.90;;
9496;SDS011;4786;51.270;4.456;2024-01-06T00:45:37;6.23;;;3.17;;
9496;SDS011;4786;51.270;4.456;2024-01-06T00:48:03;5.33;;;3.43;;
9496;SDS011;4786;51.270;4.456;2024-01-06T00:50:30;6.60;;;3.73;;
9496;SDS011;4786;51.270;4.456;2024-01-06T00:52:56;6.27;;;3.20;;
9496;SDS011;4786;51.270;4.456;2024-01-06T00:55:22;5.93;;;3.30;;
9496;SDS011;4786;51.270;4.456;2024-01-06T00:57:48;4.30;;;3.30;;
9496;SDS011;4786;51.270;4.456;2024-01-06T01:00:14;6.57;;;3.70;;
9496;SDS011;4786;51.270;4.456;2024-01-06T01:02:40;5.73;;;3.97;;
9496;SDS011;4786;51.270;4.456;2024-01-06T01:05:06;8.20;;;4.50;;
9496;SDS011;4786;51.270;4.456;2024-01-06T01:07:35;6.67;;;4.40;;
9496;SDS011;4786;51.270;4.456;2024-01-06T01:10:01;6.57;;;4.37;;
9496;SDS011;4786;51.270;4.456;2024-01-06T01:12:27;7.50;;;4.30;;
9496;SDS011;4786;51.270;4.456;2024-01-06T01:14:53;5.10;;;4.60;;
9496;SDS011;4786;51.270;4.456;2024-01-06T01:17:19;8.50;;;4.37;;
9496;SDS011;4786;51.270;4.456;2024-01-06T01:19:46;6.13;;;4.63;;
9496;SDS011;4786;51.270;4.456;2024-01-06T01:22:12;7.90;;;5.00;;
9496;SDS011;4786;51.270;4.456;2024-01-06T01:24:38;6.30;;;4.80;;
9496;SDS011;4786;51.270;4.456;2024-01-06T01:27:04;5.07;;;4.57;;
9496;SDS011;4786;51.270;4.456;2024-01-06T01:29:30;8.23;;;5.37;;
9496;SDS011;4786;51.270;4.456;2024-01-06T01:31:57;8.03;;;5.23;;
9496;SDS011;4786;51.270;4.456;2024-01-06T01:34:23;6.77;;;5.40;;
9496;SDS011;4786;51.270;4.456;2024-01-06T01:36:48;7.67;;;5.50;;
9496;SDS011;4786;51.270;4.456;2024-01-06T01:39:15;6.13;;;5.53;;
9496;SDS011;4786;51.270;4.456;2024-01-06T01:41:41;7.20;;;5.60;;
9496;SDS011;4786;51.270;4.456;2024-01-06T01:44:07;6.63;;;5.90;;
9496;SDS011;4786;51.270;4.456;2024-01-06T01:46:33;8.63;;;7.23;;
9496;SDS011;4786;51.270;4.456;2024-01-06T01:49:00;7.83;;;6.60;;
9496;SDS011;4786;51.270;4.456;2024-01-06T01:51:27;11.20;;;7.57;;
9496;SDS011;4786;51.270;4.456;2024-01-06T01:53:57;10.30;;;7.37;;
9496;SDS011;4786;51.270;4.456;2024-01-06T01:56:24;8.93;;;7.53;;
9496;SDS011;4786;51.270;4.456;2024-01-06T01:58:52;11.23;;;7.40;;
9496;SDS011;4786;51.270;4.456;2024-01-06T02:01:18;8.03;;;7.03;;
9496;SDS011;4786;51.270;4.456;2024-01-06T02:03:44;10.10;;;8.30;;
9496;SDS011;4786;51.270;4.456;2024-01-06T02:06:11;12.20;;;7.87;;
9496;SDS011;4786;51.270;4.456;2024-01-06T02:08:37;10.40;;;8.47;;
9496;SDS011;4786;51.270;4.456;2024-01-06T02:11:03;9.70;;;8.03;;
9496;SDS011;4786;51.270;4.456;2024-01-06T02:13:36;10.30;;;8.60;;
9496;SDS011;4786;51.270;4.456;2024-01-06T02:16:03;11.07;;;8.00;;
9496;SDS011;4786;51.270;4.456;2024-01-06T02:18:30;9.50;;;8.50;;
9496;SDS011;4786;51.270;4.456;2024-01-06T02:20:57;11.47;;;8.90;;
9496;SDS011;4786;51.270;4.456;2024-01-06T02:23:25;10.30;;;8.93;;
9496;SDS011;4786;51.270;4.456;2024-01-06T02:25:51;10.30;;;9.30;;
9496;SDS011;4786;51.270;4.456;2024-01-06T02:28:17;10.77;;;8.97;;
9496;SDS011;4786;51.270;4.456;2024-01-06T02:30:43;11.07;;;8.50;;
9496;SDS011;4786;51.270;4.456;2024-01-06T02:33:09;11.77;;;8.80;;
9496;SDS011;4786;51.270;4.456;2024-01-06T02:35:35;9.67;;;8.67;;
9496;SDS011;4786;51.270;4.456;2024-01-06T02:38:02;10.43;;;8.80;;
9496;SDS011;4786;51.270;4.456;2024-01-06T02:40:28;10.90;;;8.43;;
9496;SDS011;4786;51.270;4.456;2024-01-06T02:42:54;13.10;;;8.97;;
9496;SDS011;4786;51.270;4.456;2024-01-06T02:45:20;11.67;;;8.80;;
9496;SDS011;4786;51.270;4.456;2024-01-06T02:47:46;11.63;;;9.87;;
9496;SDS011;4786;51.270;4.456;2024-01-06T02:50:13;10.00;;;7.80;;
9496;SDS011;4786;51.270;4.456;2024-01-06T02:52:39;9.77;;;8.77;;
9496;SDS011;4786;51.270;4.456;2024-01-06T02:55:05;10.87;;;8.30;;
9496;SDS011;4786;51.270;4.456;2024-01-06T02:57:32;9.37;;;7.80;;
9496;SDS011;4786;51.270;4.456;2024-01-06T02:59:57;11.20;;;8.53;;
9496;SDS011;4786;51.270;4.456;2024-01-06T03:02:23;9.67;;;8.63;;
9496;SDS011;4786;51.270;4.456;2024-01-06T03:04:49;9.27;;;8.23;;
9496;SDS011;4786;51.270;4.456;2024-01-06T03:07:15;9.80;;;8.50;;
9496;SDS011;4786;51.270;4.456;2024-01-06T03:09:42;8.73;;;7.83;;
9496;SDS011;4786;51.270;4.456;2024-01-06T03:12:08;9.10;;;8.17;;
9496;SDS011;4786;51.270;4.456;2024-01-06T03:14:34;9.43;;;8.20;;
9496;SDS011;4786;51.270;4.456;2024-01-06T03:17:01;9.10;;;8.20;;
9496;SDS011;4786;51.270;4.456;2024-01-06T03:19:27;8.40;;;7.50;;
9496;SDS011;4786;51.270;4.456;2024-01-06T03:21:53;9.73;;;8.50;;
9496;SDS011;4786;51.270;4.456;2024-01-06T03:24:20;11.67;;;8.57;;
9496;SDS011;4786;51.270;4.456;2024-01-06T03:26:48;10.23;;;8.40;;
9496;SDS011;4786;51.270;4.456;2024-01-06T03:29:14;11.47;;;8.13;;
9496;SDS011;4786;51.270;4.456;2024-01-06T03:31:43;13.20;;;9.00;;
9496;SDS011;4786;51.270;4.456;2024-01-06T03:34:10;9.93;;;8.80;;
9496;SDS011;4786;51.270;4.456;2024-01-06T03:36:37;10.97;;;9.07;;
9496;SDS011;4786;51.270;4.456;2024-01-06T03:39:03;10.87;;;8.73;;
9496;SDS011;4786;51.270;4.456;2024-01-06T03:41:30;10.40;;;8.70;;
9496;SDS011;4786;51.270;4.456;2024-01-06T03:43:55;9.30;;;7.10;;
9496;SDS011;4786;51.270;4.456;2024-01-06T03:46:21;8.20;;;7.20;;
9496;SDS011;4786;51.270;4.456;2024-01-06T03:48:48;10.60;;;7.97;;
9496;SDS011;4786;51.270;4.456;2024-01-06T03:51:14;8.57;;;7.30;;
9496;SDS011;4786;51.270;4.456;2024-01-06T03:53:40;9.50;;;7.83;;
9496;SDS011;4786;51.270;4.456;2024-01-06T03:56:06;8.63;;;7.33;;
9496;SDS011;4786;51.270;4.456;2024-01-06T03:58:32;9.93;;;6.90;;
9496;SDS011;4786;51.270;4.456;2024-01-06T04:00:58;8.60;;;7.40;;
9496;SDS011;4786;51.270;4.456;2024-01-06T04:03:25;8.60;;;7.57;;
9496;SDS011;4786;51.270;4.456;2024-01-06T04:05:51;7.57;;;6.63;;
9496;SDS011;4786;51.270;4.456;2024-01-06T04:08:17;8.47;;;6.90;;
9496;SDS011;4786;51.270;4.456;2024-01-06T04:10:44;9.90;;;6.90;;
9496;SDS011;4786;51.270;4.456;2024-01-06T04:13:10;7.47;;;6.67;;
9496;SDS011;4786;51.270;4.456;2024-01-06T04:15:36;8.17;;;6.43;;
9496;SDS011;4786;51.270;4.456;2024-01-06T04:18:02;9.57;;;6.77;;
9496;SDS011;4786;51.270;4.456;2024-01-06T04:20:30;10.80;;;7.33;;
9496;SDS011;4786;51.270;4.456;2024-01-06T04:22:56;12.37;;;7.40;;
9496;SDS011;4786;51.270;4.456;2024-01-06T04:25:22;10.80;;;7.13;;
9496;SDS011;4786;51.270;4.456;2024-01-06T04:27:48;8.60;;;7.03;;
9496;SDS011;4786;51.270;4.456;2024-01-06T04:30:14;7.77;;;7.00;;
9496;SDS011;4786;51.270;4.456;2024-01-06T04:32:41;11.37;;;7.00;;
9496;SDS011;4786;51.270;4.456;2024-01-06T04:35:08;8.40;;;6.60;;
9496;SDS011;4786;51.270;4.456;2024-01-06T04:37:34;9.10;;;6.43;;
9496;SDS011;4786;51.270;4.456;2024-01-06T04:40:00;6.77;;;6.13;;
9496;SDS011;4786;51.270;4.456;2024-01-06T04:42:26;8.70;;;6.27;;
9496;SDS011;4786;51.270;4.456;2024-01-06T04:44:52;8.00;;;6.53;;
9496;SDS011;4786;51.270;4.456;2024-01-06T04:47:18;8.27;;;6.37;;
9496;SDS011;4786;51.270;4.456;2024-01-06T04:49:44;9.23;;;5.93;;
9496;SDS011;4786;51.270;4.456;2024-01-06T04:52:10;9.83;;;5.50;;
9496;SDS011;4786;51.270;4.456;2024-01-06T04:54:37;8.03;;;5.27;;
9496;SDS011;4786;51.270;4.456;2024-01-06T04:57:03;7.93;;;5.43;;
9496;SDS011;4786;51.270;4.456;2024-01-06T04:59:30;5.80;;;5.30;;
9496;SDS011;4786;51.270;4.456;2024-01-06T05:01:57;9.57;;;5.50;;
9496;SDS011;4786;51.270;4.456;2024-01-06T05:04:23;7.83;;;4.87;;
9496;SDS011;4786;51.270;4.456;2024-01-06T05:06:50;6.03;;;4.67;;
9496;SDS011;4786;51.270;4.456;2024-01-06T05:09:17;5.83;;;4.80;;
9496;SDS011;4786;51.270;4.456;2024-01-06T05:11:43;5.27;;;3.97;;
9496;SDS011;4786;51.270;4.456;2024-01-06T05:14:09;6.80;;;4.30;;
9496;SDS011;4786;51.270;4.456;2024-01-06T05:16:35;6.93;;;4.10;;
9496;SDS011;4786;51.270;4.456;2024-01-06T05:19:01;4.67;;;4.20;;
9496;SDS011;4786;51.270;4.456;2024-01-06T05:21:28;5.13;;;4.20;;
9496;SDS011;4786;51.270;4.456;2024-01-06T05:23:54;6.37;;;4.50;;
9496;SDS011;4786;51.270;4.456;2024-01-06T05:26:20;5.47;;;4.97;;
9496;SDS011;4786;51.270;4.456;2024-01-06T05:28:46;5.90;;;5.30;;
9496;SDS011;4786;51.270;4.456;2024-01-06T05:31:11;7.55;;;6.15;;
9496;SDS011;4786;51.270;4.456;2024-01-06T05:33:37;6.90;;;6.30;;
9496;SDS011;4786;51.270;4.456;2024-01-06T05:36:03;7.60;;;6.60;;
9496;SDS011;4786;51.270;4.456;2024-01-06T05:38:30;8.20;;;6.80;;
9496;SDS011;4786;51.270;4.456;2024-01-06T05:40:56;7.87;;;7.07;;
9496;SDS011;4786;51.270;4.456;2024-01-06T05:43:22;10.97;;;7.60;;
9496;SDS011;4786;51.270;4.456;2024-01-06T05:45:48;9.67;;;7.97;;
9496;SDS011;4786;51.270;4.456;2024-01-06T05:48:14;9.33;;;8.00;;
